createdAt,value
2019-03-31T00:00:39.326Z,27.82
2019-03-31T00:03:08.730Z,26.87
2019-03-31T00:05:38.070Z,27.20
2019-03-31T00:08:07.417Z,27.22
2019-03-31T00:10:36.742Z,27.77
2019-03-31T00:13:06.069Z,28.15
2019-03-31T00:15:36.033Z,28.42
2019-03-31T00:18:05.517Z,28.85
2019-03-31T00:20:34.820Z,28.25
2019-03-31T00:23:04.181Z,27.37
2019-03-31T00:25:34.230Z,28.07
2019-03-31T00:28:03.864Z,28.80
2019-03-31T00:30:33.468Z,28.40
2019-03-31T00:33:02.772Z,28.40
2019-03-31T00:35:32.076Z,27.73
2019-03-31T00:38:01.451Z,27.90
2019-03-31T00:40:30.781Z,29.75
2019-03-31T00:43:00.081Z,30.50
2019-03-31T00:45:29.458Z,29.32
2019-03-31T00:47:58.766Z,31.73
2019-03-31T00:50:28.094Z,33.13
2019-03-31T00:52:57.485Z,32.05
2019-03-31T00:55:26.861Z,33.05
2019-03-31T00:57:56.165Z,35.38
2019-03-31T01:00:46.092Z,35.75
2019-03-31T01:03:18.147Z,35.92
2019-03-31T01:05:47.799Z,36.65
2019-03-31T01:08:18.068Z,35.17
2019-03-31T01:10:47.860Z,35.88
2019-03-31T01:13:17.365Z,36.98
2019-03-31T01:15:47.268Z,37.88
2019-03-31T01:18:17.012Z,37.00
2019-03-31T01:20:46.445Z,37.88
2019-03-31T01:23:15.809Z,37.65
2019-03-31T01:25:45.140Z,37.98
2019-03-31T01:28:14.754Z,38.20
2019-03-31T01:30:44.143Z,36.73
2019-03-31T01:33:13.720Z,38.83
2019-03-31T01:35:43.095Z,38.63
2019-03-31T01:38:12.462Z,37.20
2019-03-31T01:40:42.069Z,38.53
2019-03-31T01:43:11.378Z,38.83
2019-03-31T01:45:41.006Z,39.67
2019-03-31T01:48:10.302Z,39.33
2019-03-31T01:50:39.952Z,38.50
2019-03-31T01:53:09.569Z,39.65
2019-03-31T01:55:39.343Z,39.38
2019-03-31T01:58:08.746Z,39.45
2019-03-31T02:00:40.019Z,39.48
2019-03-31T02:03:09.425Z,40.03
2019-03-31T02:05:39.022Z,40.25
2019-03-31T02:08:08.572Z,40.48
2019-03-31T02:10:37.871Z,40.75
2019-03-31T02:13:07.170Z,39.70
2019-03-31T02:15:36.539Z,39.95
2019-03-31T02:18:05.860Z,40.28
2019-03-31T02:20:35.153Z,42.58
2019-03-31T02:23:04.608Z,41.00
2019-03-31T02:25:33.933Z,42.08
2019-03-31T02:28:03.271Z,40.40
2019-03-31T02:30:32.618Z,40.63
2019-03-31T02:33:01.924Z,41.08
2019-03-31T02:35:31.289Z,39.25
2019-03-31T02:38:00.618Z,41.83
2019-03-31T02:40:29.947Z,40.78
2019-03-31T02:42:59.265Z,42.50
2019-03-31T02:45:28.613Z,41.63
2019-03-31T02:47:58.021Z,40.98
2019-03-31T02:50:46.647Z,40.23
2019-03-31T02:53:20.651Z,39.85
2019-03-31T02:55:51.170Z,39.08
2019-03-31T02:58:21.410Z,40.75
2019-03-31T03:00:50.807Z,40.10
2019-03-31T03:03:21.093Z,42.00
2019-03-31T03:05:51.372Z,40.43
2019-03-31T03:08:22.033Z,41.35
2019-03-31T03:10:53.536Z,40.75
2019-03-31T03:13:24.933Z,41.60
2019-03-31T03:16:04.544Z,39.50
2019-03-31T03:18:33.879Z,40.70
2019-03-31T03:21:03.275Z,43.02
2019-03-31T03:23:32.574Z,42.55
2019-03-31T03:26:01.993Z,42.00
2019-03-31T03:28:31.318Z,42.33
2019-03-31T03:31:01.050Z,40.78
2019-03-31T03:33:30.573Z,41.85
2019-03-31T03:35:59.898Z,41.25
2019-03-31T03:38:29.213Z,42.80
2019-03-31T03:40:58.586Z,41.80
2019-03-31T03:43:27.891Z,42.33
2019-03-31T03:45:57.262Z,41.10
2019-03-31T03:48:26.615Z,42.55
2019-03-31T03:50:58.909Z,42.60
2019-03-31T03:53:28.197Z,41.90
2019-03-31T03:55:57.886Z,42.85
2019-03-31T03:58:27.214Z,42.38
2019-03-31T04:00:56.483Z,41.95
2019-03-31T04:03:30.447Z,43.05
2019-03-31T04:05:56.913Z,42.25
2019-03-31T04:08:26.213Z,41.58
2019-03-31T04:11:11.077Z,42.20
2019-03-31T04:13:40.412Z,43.55
2019-03-31T04:16:09.843Z,41.13
2019-03-31T04:18:39.204Z,42.88
2019-03-31T04:21:08.495Z,40.58
2019-03-31T04:23:38.793Z,42.88
2019-03-31T04:26:08.215Z,41.90
2019-03-31T04:28:37.543Z,42.55
2019-03-31T04:31:07.129Z,42.40
2019-03-31T04:33:50.802Z,41.85
2019-03-31T04:36:08.358Z,42.25
2019-03-31T04:38:37.917Z,42.83
2019-03-31T04:41:07.366Z,43.10
2019-03-31T04:43:36.664Z,41.37
2019-03-31T04:46:05.960Z,42.20
2019-03-31T04:48:35.322Z,42.48
2019-03-31T04:51:04.727Z,42.03
2019-03-31T04:53:34.325Z,43.68
2019-03-31T04:56:03.678Z,43.13
2019-03-31T04:58:33.005Z,42.35
2019-03-31T05:01:02.315Z,42.67
2019-03-31T05:03:31.689Z,42.15
2019-03-31T05:06:00.997Z,41.63
2019-03-31T05:08:30.402Z,43.78
2019-03-31T05:10:59.771Z,43.87
2019-03-31T05:13:29.073Z,42.55
2019-03-31T05:15:58.630Z,43.85
2019-03-31T05:18:28.000Z,44.50
2019-03-31T05:20:57.296Z,43.25
2019-03-31T05:23:26.625Z,42.33
2019-03-31T05:25:58.887Z,45.00
2019-03-31T05:28:28.215Z,43.70
2019-03-31T05:30:57.528Z,43.30
2019-03-31T05:33:26.922Z,43.15
2019-03-31T05:35:56.252Z,44.00
2019-03-31T05:38:25.616Z,43.85
2019-03-31T05:40:54.975Z,42.53
2019-03-31T05:43:24.281Z,44.98
2019-03-31T05:45:53.575Z,42.70
2019-03-31T05:48:23.251Z,43.13
2019-03-31T05:50:52.557Z,43.35
2019-03-31T05:53:21.883Z,43.90
2019-03-31T05:55:51.268Z,42.05
2019-03-31T05:58:20.555Z,43.23
2019-03-31T06:00:50.359Z,43.58
2019-03-31T06:03:19.724Z,43.55
2019-03-31T06:05:49.446Z,41.92
2019-03-31T06:08:18.741Z,43.25
2019-03-31T06:10:48.120Z,42.08
2019-03-31T06:13:17.453Z,42.30
2019-03-31T06:15:46.752Z,43.10
2019-03-31T06:18:16.166Z,42.03
2019-03-31T06:20:45.577Z,41.50
2019-03-31T06:23:14.849Z,41.33
2019-03-31T06:25:45.710Z,41.00
2019-03-31T06:28:14.953Z,39.20
2019-03-31T06:30:44.249Z,39.30
2019-03-31T06:33:13.617Z,37.10
2019-03-31T06:35:42.977Z,36.38
2019-03-31T06:38:12.269Z,33.55
2019-03-31T06:40:43.217Z,35.90
2019-03-31T06:43:12.606Z,34.38
2019-03-31T06:45:41.886Z,37.85
2019-03-31T06:48:11.515Z,34.27
2019-03-31T06:50:40.808Z,33.50
2019-03-31T06:53:10.138Z,33.78
2019-03-31T06:55:39.477Z,33.83
2019-03-31T06:58:08.843Z,33.18
2019-03-31T07:00:38.154Z,31.52
2019-03-31T07:03:10.613Z,32.60
2019-03-31T07:05:39.896Z,32.17
2019-03-31T07:08:09.205Z,34.18
2019-03-31T07:10:38.559Z,31.55
2019-03-31T07:13:07.864Z,33.92
2019-03-31T07:15:37.157Z,29.35
2019-03-31T07:18:06.659Z,31.70
2019-03-31T07:20:36.030Z,30.10
2019-03-31T07:23:05.299Z,29.67
2019-03-31T07:25:37.200Z,29.40
2019-03-31T07:28:05.675Z,28.73
2019-03-31T07:30:34.986Z,29.27
2019-03-31T07:33:04.705Z,29.55
2019-03-31T07:35:33.983Z,28.57
2019-03-31T07:38:03.372Z,28.15
2019-03-31T07:40:32.845Z,27.35
2019-03-31T07:43:02.778Z,28.62
2019-03-31T07:45:32.057Z,27.42
2019-03-31T07:48:01.634Z,28.02
2019-03-31T07:50:30.962Z,28.15
2019-03-31T07:53:00.235Z,27.58
2019-03-31T07:55:29.582Z,26.85
2019-03-31T07:57:58.898Z,26.82
2019-03-31T08:00:28.250Z,28.35
2019-03-31T08:03:00.269Z,27.90
2019-03-31T08:05:33.367Z,27.07
2019-03-31T08:07:59.779Z,27.37
2019-03-31T08:10:29.153Z,27.73
2019-03-31T08:12:58.456Z,27.60
2019-03-31T08:15:27.759Z,27.67
2019-03-31T08:17:57.133Z,26.80
2019-03-31T08:20:26.712Z,26.65
2019-03-31T08:22:57.281Z,27.93
2019-03-31T08:25:27.035Z,27.15
2019-03-31T08:27:56.644Z,27.10
2019-03-31T08:30:25.939Z,26.17
2019-03-31T08:32:55.546Z,26.30
2019-03-31T08:35:24.847Z,26.48
2019-03-31T08:37:54.143Z,26.23
2019-03-31T08:40:23.486Z,25.85
2019-03-31T08:42:52.798Z,26.05
2019-03-31T08:45:22.162Z,27.13
2019-03-31T08:47:51.616Z,25.65
2019-03-31T08:50:20.929Z,24.75
2019-03-31T08:52:50.234Z,25.50
2019-03-31T08:55:19.641Z,25.17
2019-03-31T08:57:48.950Z,25.65
2019-03-31T09:00:21.022Z,24.50
2019-03-31T09:02:50.386Z,25.75
2019-03-31T09:05:19.684Z,24.95
2019-03-31T09:07:48.987Z,25.00
2019-03-31T09:10:18.411Z,24.75
2019-03-31T09:12:48.710Z,24.15
2019-03-31T09:15:18.490Z,24.00
2019-03-31T09:17:47.877Z,24.50
2019-03-31T09:20:17.982Z,24.60
2019-03-31T09:22:47.281Z,23.83
2019-03-31T09:25:16.625Z,22.93
2019-03-31T09:27:45.927Z,25.15
2019-03-31T09:30:16.466Z,23.95
2019-03-31T09:32:46.206Z,24.95
2019-03-31T09:35:15.705Z,24.80
2019-03-31T09:37:45.035Z,21.82
2019-03-31T09:40:16.540Z,21.80
2019-03-31T09:42:46.189Z,21.10
2019-03-31T09:45:16.017Z,19.50
2019-03-31T09:47:45.394Z,19.30
2019-03-31T09:50:17.468Z,19.10
2019-03-31T09:52:47.177Z,18.65
2019-03-31T09:55:18.278Z,18.92
2019-03-31T09:57:47.615Z,17.42
2019-03-31T10:00:38.137Z,16.50
2019-03-31T10:03:07.753Z,16.67
2019-03-31T10:05:37.049Z,15.28
2019-03-31T10:08:06.731Z,14.28
2019-03-31T10:10:36.477Z,14.58
2019-03-31T10:13:05.782Z,14.78
2019-03-31T10:15:35.588Z,14.10
2019-03-31T10:18:05.265Z,14.90
2019-03-31T10:20:36.451Z,14.45
2019-03-31T10:23:06.560Z,13.85
2019-03-31T10:25:35.960Z,14.58
2019-03-31T10:28:05.747Z,16.85
2019-03-31T10:30:39.870Z,15.72
2019-03-31T10:33:09.739Z,15.08
2019-03-31T10:35:39.377Z,14.60
2019-03-31T10:38:09.666Z,14.75
2019-03-31T10:40:38.978Z,13.38
2019-03-31T10:43:11.473Z,14.43
2019-03-31T10:45:40.828Z,14.65
2019-03-31T10:48:20.394Z,14.30
2019-03-31T10:50:41.517Z,15.13
2019-03-31T10:53:10.959Z,15.63
2019-03-31T10:55:40.274Z,17.77
2019-03-31T10:58:09.611Z,16.55
2019-03-31T11:00:39.373Z,16.90
2019-03-31T11:03:09.350Z,18.17
2019-03-31T11:05:39.116Z,17.87
2019-03-31T11:08:08.875Z,18.80
2019-03-31T11:10:38.252Z,19.00
2019-03-31T11:13:07.653Z,18.35
2019-03-31T11:15:37.519Z,19.45
2019-03-31T11:18:06.895Z,18.55
2019-03-31T11:20:36.287Z,19.17
2019-03-31T11:23:10.271Z,19.17
2019-03-31T11:25:39.950Z,20.25
2019-03-31T11:28:09.251Z,21.40
2019-03-31T11:30:38.566Z,20.70
2019-03-31T11:33:07.977Z,20.72
2019-03-31T11:35:37.327Z,21.45
2019-03-31T11:38:06.671Z,20.97
2019-03-31T11:40:35.971Z,20.27
2019-03-31T11:43:05.397Z,19.67
2019-03-31T11:45:34.703Z,20.72
2019-03-31T11:48:04.096Z,20.15
2019-03-31T11:50:33.446Z,20.02
2019-03-31T11:53:02.749Z,18.65
2019-03-31T11:55:32.080Z,17.48
2019-03-31T11:58:01.438Z,18.67
2019-03-31T12:00:32.464Z,19.12
2019-03-31T12:03:02.086Z,20.55
2019-03-31T12:05:31.460Z,21.05
2019-03-31T12:08:00.854Z,21.05
2019-03-31T12:10:30.205Z,19.70
2019-03-31T12:12:59.540Z,19.23
2019-03-31T12:15:28.930Z,21.35
2019-03-31T12:17:58.287Z,21.60
2019-03-31T12:20:27.814Z,22.95
2019-03-31T12:22:57.181Z,22.05
2019-03-31T12:25:26.484Z,21.48
2019-03-31T12:27:55.821Z,22.15
2019-03-31T12:30:32.623Z,21.85
2019-03-31T12:33:01.933Z,20.82
2019-03-31T12:35:31.239Z,22.15
2019-03-31T12:38:00.589Z,20.97
2019-03-31T12:40:36.188Z,21.77
2019-03-31T12:43:06.022Z,21.93
2019-03-31T12:45:35.393Z,21.70
2019-03-31T12:48:04.837Z,20.52
2019-03-31T12:50:34.286Z,20.15
2019-03-31T12:53:03.670Z,19.62
2019-03-31T12:55:33.093Z,20.80
2019-03-31T12:58:02.500Z,20.05
2019-03-31T13:00:31.837Z,18.48
2019-03-31T13:03:01.172Z,19.00
2019-03-31T13:05:30.504Z,18.50
2019-03-31T13:07:59.930Z,17.42
2019-03-31T13:10:29.235Z,16.55
2019-03-31T13:12:58.584Z,15.30
2019-03-31T13:15:27.974Z,13.58
2019-03-31T13:17:57.319Z,13.15
2019-03-31T13:20:26.860Z,13.40
2019-03-31T13:22:56.190Z,12.50
2019-03-31T13:25:25.667Z,11.80
2019-03-31T13:27:55.287Z,11.83
2019-03-31T13:30:24.655Z,11.63
2019-03-31T13:32:54.490Z,12.95
2019-03-31T13:35:23.814Z,12.78
2019-03-31T13:37:53.088Z,11.95
2019-03-31T13:40:22.491Z,12.58
2019-03-31T13:42:51.801Z,11.63
2019-03-31T13:45:21.106Z,12.25
2019-03-31T13:47:50.485Z,12.43
2019-03-31T13:50:19.933Z,13.22
2019-03-31T13:52:49.267Z,12.85
2019-03-31T13:55:18.615Z,13.45
2019-03-31T13:57:49.195Z,11.60
2019-03-31T14:00:34.989Z,11.55
2019-03-31T14:03:04.766Z,10.85
2019-03-31T14:05:34.237Z,11.75
2019-03-31T14:08:04.312Z,10.63
2019-03-31T14:10:33.698Z,10.35
2019-03-31T14:13:03.001Z,11.12
2019-03-31T14:15:32.689Z,10.45
2019-03-31T14:18:02.013Z,11.05
2019-03-31T14:20:31.310Z,11.30
2019-03-31T14:23:00.672Z,10.23
2019-03-31T14:25:29.971Z,11.48
2019-03-31T14:27:59.271Z,12.85
2019-03-31T14:30:28.880Z,11.85
2019-03-31T14:32:58.179Z,11.20
2019-03-31T14:35:27.582Z,11.22
2019-03-31T14:37:56.986Z,11.15
2019-03-31T14:40:29.423Z,11.83
2019-03-31T14:42:58.753Z,11.20
2019-03-31T14:45:33.654Z,9.83
2019-03-31T14:48:03.729Z,10.58
2019-03-31T14:50:37.715Z,11.15
2019-03-31T14:53:07.816Z,10.32
2019-03-31T14:55:37.857Z,10.68
2019-03-31T14:58:08.497Z,10.18
2019-03-31T15:00:38.119Z,10.88
2019-03-31T15:03:07.472Z,10.43
2019-03-31T15:05:36.782Z,9.95
2019-03-31T15:08:06.377Z,11.28
2019-03-31T15:10:35.689Z,12.85
2019-03-31T15:13:05.546Z,15.68
2019-03-31T15:15:34.905Z,11.95
2019-03-31T15:18:04.727Z,12.00
2019-03-31T15:20:34.329Z,12.50
2019-03-31T15:23:03.807Z,13.15
2019-03-31T15:25:33.149Z,12.37
2019-03-31T15:28:02.523Z,11.85
2019-03-31T15:30:31.935Z,11.03
2019-03-31T15:33:01.258Z,10.53
2019-03-31T15:35:30.591Z,10.48
2019-03-31T15:37:59.970Z,10.45
2019-03-31T15:40:29.278Z,10.23
2019-03-31T15:42:58.616Z,9.45
2019-03-31T15:45:27.983Z,9.10
2019-03-31T15:47:57.283Z,10.20
2019-03-31T15:50:26.588Z,11.90
2019-03-31T15:52:56.266Z,12.00
2019-03-31T15:55:25.572Z,11.63
2019-03-31T15:57:54.875Z,12.07
2019-03-31T16:00:24.287Z,11.15
2019-03-31T16:02:53.598Z,10.72
2019-03-31T16:05:22.906Z,11.83
2019-03-31T16:07:52.271Z,10.30
2019-03-31T16:10:21.627Z,11.68
2019-03-31T16:12:50.943Z,10.82
2019-03-31T16:15:20.317Z,11.10
2019-03-31T16:17:49.710Z,10.82
2019-03-31T16:20:19.039Z,11.43
2019-03-31T16:22:48.365Z,9.38
2019-03-31T16:25:19.431Z,9.43
2019-03-31T16:27:48.732Z,10.90
2019-03-31T16:30:18.234Z,10.13
2019-03-31T16:32:47.619Z,9.93
2019-03-31T16:35:16.941Z,9.38
2019-03-31T16:37:46.272Z,9.23
2019-03-31T16:40:15.631Z,8.93
2019-03-31T16:42:45.039Z,7.90
2019-03-31T16:45:14.483Z,7.55
2019-03-31T16:47:43.854Z,7.72
2019-03-31T16:50:13.457Z,6.35
2019-03-31T16:52:42.763Z,6.53
2019-03-31T16:55:12.955Z,7.12
2019-03-31T16:57:42.296Z,6.65
2019-03-31T17:00:11.801Z,6.62
2019-03-31T17:02:41.961Z,6.60
2019-03-31T17:05:21.550Z,7.60
2019-03-31T17:07:43.187Z,6.60
2019-03-31T17:10:13.310Z,6.72
2019-03-31T17:12:42.629Z,6.70
2019-03-31T17:15:12.501Z,6.65
2019-03-31T17:17:41.834Z,6.42
2019-03-31T17:20:12.256Z,6.72
2019-03-31T17:22:41.637Z,6.83
2019-03-31T17:25:11.402Z,6.17
2019-03-31T17:27:40.699Z,6.28
2019-03-31T17:30:11.669Z,6.17
2019-03-31T17:32:40.971Z,5.90
2019-03-31T17:35:10.519Z,5.22
2019-03-31T17:37:39.796Z,4.60
2019-03-31T17:40:10.093Z,4.92
2019-03-31T17:42:39.431Z,4.25
2019-03-31T17:45:09.135Z,4.50
2019-03-31T17:47:38.812Z,4.30
2019-03-31T17:50:08.943Z,4.37
2019-03-31T17:52:38.244Z,4.25
2019-03-31T17:55:08.221Z,4.10
2019-03-31T17:57:37.527Z,4.12
2019-03-31T18:00:10.372Z,4.67
2019-03-31T18:02:39.755Z,4.65
2019-03-31T18:05:09.644Z,4.12
2019-03-31T18:07:38.969Z,4.28
2019-03-31T18:10:19.947Z,4.55
2019-03-31T18:12:40.499Z,4.80
2019-03-31T18:15:10.787Z,4.40
2019-03-31T18:17:40.117Z,4.58
2019-03-31T18:20:09.883Z,4.47
2019-03-31T18:22:39.549Z,4.55
2019-03-31T18:25:09.556Z,5.00
2019-03-31T18:27:38.899Z,5.15
2019-03-31T18:30:09.251Z,4.28
2019-03-31T18:32:38.627Z,4.60
2019-03-31T18:35:09.310Z,4.45
2019-03-31T18:37:38.617Z,4.70
2019-03-31T18:40:08.913Z,3.87
2019-03-31T18:42:38.282Z,4.25
2019-03-31T18:45:08.451Z,4.05
2019-03-31T18:47:37.798Z,4.10
2019-03-31T18:50:08.502Z,4.12
2019-03-31T18:52:37.827Z,4.62
2019-03-31T18:55:26.496Z,5.00
2019-03-31T18:58:03.153Z,4.12
2019-03-31T19:00:49.752Z,4.30
2019-03-31T19:03:32.359Z,4.58
2019-03-31T19:06:03.527Z,4.65
2019-03-31T19:08:51.123Z,4.62
2019-03-31T19:11:22.453Z,5.00
2019-03-31T19:13:59.253Z,4.55
2019-03-31T19:16:39.625Z,3.98
2019-03-31T19:19:19.018Z,3.83
2019-03-31T19:22:05.827Z,3.98
2019-03-31T19:24:39.481Z,3.83
2019-03-31T19:27:22.140Z,3.90
2019-03-31T19:29:55.761Z,3.33
2019-03-31T19:32:32.930Z,3.40
2019-03-31T19:35:18.932Z,3.67
2019-03-31T19:38:06.088Z,3.62
2019-03-31T19:40:41.427Z,3.60
2019-03-31T19:43:30.830Z,3.83
2019-03-31T19:46:18.105Z,4.10
2019-03-31T19:48:51.845Z,3.90
2019-03-31T19:51:22.869Z,4.20
2019-03-31T19:54:08.867Z,4.42
2019-03-31T19:56:39.820Z,4.85
2019-03-31T19:59:27.357Z,4.95
2019-03-31T20:02:14.334Z,4.85
2019-03-31T20:05:00.482Z,4.05
2019-03-31T20:07:33.998Z,3.50
2019-03-31T20:10:23.713Z,3.85
2019-03-31T20:13:00.744Z,3.10
2019-03-31T20:15:31.975Z,3.15
2019-03-31T20:18:03.044Z,3.35
2019-03-31T20:20:33.996Z,4.87
2019-03-31T20:23:13.867Z,3.72
2019-03-31T20:25:47.795Z,3.70
2019-03-31T20:28:18.764Z,3.27
2019-03-31T20:30:49.746Z,3.50
2019-03-31T20:33:26.469Z,3.02
2019-03-31T20:36:13.770Z,3.55
2019-03-31T20:38:59.924Z,2.60
2019-03-31T20:41:36.809Z,2.30
2019-03-31T20:44:06.103Z,2.52
2019-03-31T20:46:35.419Z,2.30
2019-03-31T20:49:04.828Z,2.55
2019-03-31T20:51:34.109Z,2.17
2019-03-31T20:54:03.470Z,2.60
2019-03-31T20:56:32.813Z,2.77
2019-03-31T20:59:02.101Z,2.75
2019-03-31T21:01:31.728Z,2.45
2019-03-31T21:04:01.074Z,2.52
2019-03-31T21:06:30.401Z,2.67
2019-03-31T21:09:00.027Z,3.17
2019-03-31T21:11:29.368Z,2.80
2019-03-31T21:13:59.016Z,2.80
2019-03-31T21:16:28.336Z,2.75
2019-03-31T21:18:57.657Z,2.90
2019-03-31T21:21:27.002Z,2.98
2019-03-31T21:23:56.298Z,2.77
2019-03-31T21:26:25.616Z,2.90
2019-03-31T21:28:55.060Z,3.10
2019-03-31T21:31:24.341Z,2.65
2019-03-31T21:33:53.727Z,2.70
2019-03-31T21:36:23.084Z,2.92
2019-03-31T21:38:52.380Z,2.95
2019-03-31T21:41:21.945Z,2.60
2019-03-31T21:43:51.330Z,2.20
2019-03-31T21:46:20.647Z,2.60
2019-03-31T21:48:50.470Z,2.30
2019-03-31T21:51:23.346Z,2.42
2019-03-31T21:53:52.633Z,2.92
2019-03-31T21:56:22.237Z,2.65
2019-03-31T21:58:51.616Z,2.70
2019-03-31T22:01:20.910Z,2.40
2019-03-31T22:03:50.203Z,2.65
2019-03-31T22:06:19.574Z,2.72
2019-03-31T22:08:48.860Z,2.75
2019-03-31T22:11:18.155Z,2.60
2019-03-31T22:13:47.895Z,2.85
2019-03-31T22:16:17.143Z,2.90
2019-03-31T22:18:46.771Z,3.10
2019-03-31T22:21:16.472Z,2.92
2019-03-31T22:23:57.444Z,2.92
2019-03-31T22:26:19.662Z,2.50
2019-03-31T22:28:48.132Z,2.40
2019-03-31T22:31:17.757Z,2.87
2019-03-31T22:33:47.100Z,2.55
2019-03-31T22:36:22.640Z,3.00
2019-03-31T22:38:53.618Z,2.80
2019-03-31T22:41:23.260Z,3.05
2019-03-31T22:43:52.613Z,2.55
2019-03-31T22:46:21.983Z,2.77
2019-03-31T22:48:51.277Z,2.92
2019-03-31T22:51:20.630Z,3.25
2019-03-31T22:53:49.912Z,2.70
2019-03-31T22:56:19.490Z,2.52
2019-03-31T22:58:48.814Z,2.77
2019-03-31T23:01:20.768Z,2.80
2019-03-31T23:03:50.128Z,3.20
2019-03-31T23:06:19.445Z,2.87
2019-03-31T23:08:48.731Z,2.60
2019-03-31T23:11:18.091Z,2.30
2019-03-31T23:13:47.381Z,2.10
2019-03-31T23:16:16.691Z,2.00
2019-03-31T23:18:46.081Z,2.33
2019-03-31T23:21:15.362Z,1.70
2019-03-31T23:23:44.645Z,2.05
2019-03-31T23:26:13.994Z,1.60
2019-03-31T23:28:46.332Z,1.70
2019-03-31T23:31:17.150Z,1.62
2019-03-31T23:33:46.531Z,1.60
2019-03-31T23:36:16.147Z,1.72
2019-03-31T23:38:45.523Z,2.02
2019-03-31T23:41:14.866Z,1.98
2019-03-31T23:43:44.514Z,1.55
2019-03-31T23:46:13.750Z,1.75
2019-03-31T23:48:43.463Z,2.08
2019-03-31T23:51:15.500Z,2.40
2019-03-31T23:53:44.795Z,1.95
2019-03-31T23:56:14.149Z,2.20
2019-03-31T23:58:43.444Z,2.40
